logo dgac
Martes 23 de Julio del 2019
Buscar por aerodromo o helipuerto
Ingrese nombre de aeródromo, localidad o designador OACI:
TAF: TAF SCBA 230915Z 2309/2406 31020G30KT CAVOK TNM01/2311Z TX06/2318Z BECMG 2312/2314 BKN020
TAF del 23/07/2019 a las 09:15 UTC
Período de validez: desde el 23 a las 09:00 UTC hasta el 24 a las 06:00 UTC
Viento: dirección 310 grados, velocidad 20 nudos, con ráfagas de velocidad máxima de 30Nudos
Visibilidad: 10 km o más,
    sin nubes bajo los 5.000 pies o bajo del MSA (Mínimo de Seguridad del Aeródromo),
    sin cumulonimbus, y sin fenómenos de tiempo significativo en el aeródromo o alrededores
Nan: TNM01/2311Z
Temperatura máxima: 6ºC el 23 a las 18:00 UTC
Se espera un cambio entre las 12:00 UTC del 23 y las 14:00 UTC del 23, :
Nubes: Nublado a 2000 pies sobre el nivel del aeródromo